Latest Weather Observations for Warburton

IDD60801

Issued at 3:31 pm CST Monday 8 February 2016 (issued every 30 minutes, with the page automatically refreshed every 10 minutes)

About weather observations | Map of weather stations | Latest weather observations for NT | Other Formats
Station Details ID: 013011 Name: WARBURTON AIRFIELD Lat: -26.13 Lon: 126.58 Height: 459.0 m
Data from the previous 72 hours. | See also: Recent months at Warburton
Date/Time
CST
Temp
°C
App
Temp
°C
Dew
Point
Rel
Hum
%
Delta-T
°C
Wind Press
QNH
hPa
Press
MSL
hPa
Rain
since 9 am
mm
Dir
 
Spd
km/h
Gust
km/h
Spd
kts
Gust
kts
08/03:30pm 37.6 32.1 2.1 11 18.8 E 20 32 11 17 1015.4 - 0.0
08/03:00pm 38.2 32.7 3.8 12 18.7 SE 22 32 12 17 1015.6 - 0.0
08/02:30pm 37.7 32.1 3.4 12 18.5 E 22 32 12 17 1015.9 - 0.0
08/02:00pm 37.6 33.9 4.5 13 18.2 E 13 24 7 13 1016.2 - 0.0
08/01:30pm 37.2 33.2 3.1 12 18.3 E 13 32 7 17 1016.6 1013.2 0.0
08/01:00pm 37.1 32.8 5.2 14 17.6 E 17 33 9 18 1017.0 - 0.0
08/12:30pm 36.2 30.2 5.5 15 17.0 ENE 26 39 14 21 1017.5 - 0.0
08/12:00pm 35.7 30.2 7.7 18 16.0 E 26 37 14 20 1018.0 - 0.0
08/11:31am 35.3 29.4 8.9 20 15.3 E 30 52 16 28 1018.3 - 0.0
08/11:30am 34.6 28.9 9.8 22 14.5 E 30 43 16 23 1018.4 - 0.0
08/11:00am 33.1 27.0 9.8 24 13.6 E 32 46 17 25 1018.7 - 0.0
08/10:30am 32.2 26.3 10.3 26 12.8 E 32 44 17 24 1018.8 1015.4 0.0
08/10:00am 30.1 23.9 10.1 29 11.6 E 33 43 18 23 1019.2 - 0.0
08/09:30am 29.0 23.0 10.2 31 10.8 E 32 44 17 24 1019.3 - 0.0
08/09:00am 27.6 21.2 9.4 32 10.3 E 33 48 18 26 1019.4 - 0.0
08/08:30am 26.5 20.9 8.9 33 9.8 E 28 41 15 22 1019.0 - 0.0
08/08:00am 25.3 19.1 7.9 33 9.5 ESE 30 43 16 23 1018.8 - 0.0
08/07:30am 24.5 18.2 7.2 33 9.2 ESE 30 44 16 24 1018.6 1015.2 0.0
08/07:00am 24.0 17.5 6.3 32 9.3 ESE 30 39 16 21 1018.3 - 0.0
08/06:30am 24.0 18.5 5.8 31 9.5 ESE 24 35 13 19 1018.2 - 0.0
08/06:00am 24.2 19.5 6.0 31 9.5 ESE 20 30 11 16 1018.0 - 0.0
08/05:30am 24.5 19.4 5.8 30 9.8 ESE 22 33 12 18 1017.8 - 0.0
08/05:00am 24.6 19.8 5.4 29 10.0 ESE 20 28 11 15 1017.8 - 0.0
08/04:30am 24.9 20.0 5.2 28 10.2 SE 20 32 11 17 1017.8 1014.4 0.0
08/04:00am 25.4 19.7 5.1 27 10.5 SE 24 32 13 17 1017.6 - 0.0
08/03:30am 25.9 20.2 4.9 26 10.9 SE 24 33 13 18 1017.7 - 0.0
08/03:00am 26.3 20.6 4.7 25 11.2 SE 24 32 13 17 1017.8 - 0.0
08/02:30am 26.8 20.7 4.6 24 11.5 SE 26 33 14 18 1017.8 - 0.0
08/02:00am 27.2 20.6 4.3 23 11.8 SE 28 39 15 21 1018.0 - 0.0
08/01:30am 27.6 21.5 4.6 23 11.9 SE 26 35 14 19 1018.1 1014.7 0.0
08/01:00am 28.1 22.0 5.0 23 12.1 SE 26 35 14 19 1018.1 - 0.0
08/12:30am 28.6 22.9 4.8 22 12.5 SE 24 33 13 18 1018.1 - 0.0
08/12:00am 29.4 22.9 4.8 21 13.0 SE 28 39 15 21 1017.9 - 0.0
 
Date/Time
CST
Temp
°C
App
Temp
°C
Dew
Point
Rel
Hum
%
Delta-T
°C
Wind Press
QNH
hPa
Press
MSL
hPa
Rain
since 9 am
mm
Dir
 
Spd
km/h
Gust
km/h
Spd
kts
Gust
kts
07/11:30pm 29.6 23.5 5.0 21 13.0 SE 26 35 14 19 1017.7 - 0.0
07/11:00pm 30.0 25.0 4.6 20 13.4 SE 20 30 11 16 1017.6 - 0.0
07/10:30pm 29.6 25.9 4.3 20 13.2 SE 13 17 7 9 1017.4 1014.0 0.0
07/10:00pm 30.3 26.4 3.4 18 13.9 SE 13 17 7 9 1017.2 - 0.0
07/09:30pm 31.4 27.1 3.4 17 14.6 SE 15 19 8 10 1016.6 - 0.0
07/09:00pm 32.4 28.0 2.5 15 15.5 SE 15 20 8 11 1016.2 - 0.0
07/08:30pm 33.3 28.1 2.2 14 16.1 SE 19 24 10 13 1015.8 - 0.0
07/08:00pm 34.1 28.8 1.8 13 16.7 ESE 19 26 10 14 1015.4 - 0.0
07/07:30pm 35.1 29.5 1.5 12 17.4 ESE 20 28 11 15 1015.0 1011.5 0.0
07/07:00pm 35.9 30.4 2.1 12 17.7 SE 20 32 11 17 1014.4 - 0.0
07/06:30pm 36.1 31.0 3.3 13 17.5 E 19 30 10 16 1014.2 - 0.0
07/06:00pm 36.5 31.7 2.5 12 18.0 E 17 26 9 14 1013.9 - 0.0
07/05:30pm 36.6 31.8 2.6 12 18.0 SE 17 30 9 16 1013.9 - 0.0
07/05:00pm 36.3 30.7 3.5 13 17.6 SE 22 41 12 22 1013.9 - 0.0
07/04:30pm 36.3 31.1 3.5 13 17.6 ESE 20 33 11 18 1014.1 1010.7 0.0
07/04:00pm 36.3 31.7 3.5 13 17.6 ESE 17 28 9 15 1014.2 - 0.0
07/03:30pm 36.2 32.7 3.4 13 17.6 SE 11 22 6 12 1014.7 - 0.0
07/03:00pm 36.9 33.5 4.0 13 17.9 SE 11 24 6 13 1015.0 - 0.0
07/02:30pm 35.8 31.8 5.1 15 16.8 E 15 30 8 16 1015.2 - 0.0
07/02:00pm 34.6 31.0 5.1 16 16.1 E 13 26 7 14 1015.6 - 0.0
07/01:30pm 34.9 31.6 6.2 17 15.9 E 13 33 7 18 1015.9 1012.5 0.0
07/01:00pm 34.8 30.3 7.0 18 15.6 E 20 35 11 19 1016.2 - 0.0
07/12:30pm 34.2 29.6 8.0 20 14.9 ESE 22 35 12 19 1016.7 - 0.0
07/12:00pm 33.5 28.9 8.2 21 14.4 E 22 32 12 17 1017.3 - 0.0
07/11:30am 32.5 28.0 8.7 23 13.6 E 22 32 12 17 1017.5 - 0.0
07/11:00am 31.5 26.8 9.1 25 12.8 E 24 33 13 18 1017.7 - 0.0
07/10:30am 30.0 25.2 9.0 27 11.9 ESE 24 32 13 17 1017.7 1014.3 0.0
07/10:00am 28.7 23.5 8.9 29 11.1 E 26 37 14 20 1017.8 - 0.0
07/09:30am 28.1 22.4 8.4 29 11.0 E 28 43 15 23 1017.8 - 0.0
07/09:00am 26.7 20.2 8.2 31 10.2 E 32 46 17 25 1017.6 - 0.0
07/08:30am 25.6 19.5 8.1 33 9.6 E 30 44 16 24 1017.5 - 0.0
07/08:00am 24.5 18.2 7.6 34 9.1 ESE 30 39 16 21 1017.2 - 0.0
07/07:30am 23.4 17.4 7.1 35 8.6 ESE 28 39 15 21 1016.9 1013.4 0.0
07/07:00am 22.3 17.0 6.9 37 8.1 ESE 24 33 13 18 1016.6 - 0.0
07/06:30am 22.5 16.8 6.7 36 8.3 ESE 26 33 14 18 1016.2 - 0.0
07/06:00am 22.8 17.1 6.6 35 8.5 ESE 26 35 14 19 1015.7 - 0.0
07/05:30am 23.3 17.2 6.6 34 8.8 ESE 28 37 15 20 1015.5 - 0.0
07/05:00am 23.7 17.1 6.0 32 9.2 ESE 30 43 16 23 1015.3 - 0.0
07/04:30am 24.0 17.8 6.3 32 9.3 ESE 28 39 15 21 1015.1 1011.6 0.0
07/04:00am 24.5 18.0 6.3 31 9.6 ESE 30 46 16 25 1014.9 - 0.0
07/03:53am 24.5 18.3 6.3 31 9.6 ESE 28 46 15 25 1015.0 - 0.0
07/03:30am 24.6 18.5 6.4 31 9.6 ESE 28 39 15 21 1014.9 - 0.0
07/03:00am 25.1 19.4 6.8 31 9.8 ESE 26 35 14 19 1014.7 - 0.0
07/02:30am 25.5 19.4 6.7 30 10.0 SE 28 35 15 19 1014.6 - 0.0
07/02:00am 25.9 20.5 6.5 29 10.3 SE 24 33 13 18 1014.6 - 0.0
07/01:30am 26.3 20.6 6.9 29 10.4 SE 26 37 14 20 1014.8 1011.3 0.0
07/01:00am 26.6 21.6 6.6 28 10.7 SE 22 32 12 17 1014.8 - 0.0
07/12:30am 26.7 22.1 6.7 28 10.7 SE 20 28 11 15 1014.9 - 0.0
07/12:00am 26.8 23.2 6.8 28 10.8 SE 15 20 8 11 1015.0 - 0.0
 
Date/Time
CST
Temp
°C
App
Temp
°C
Dew
Point
Rel
Hum
%
Delta-T
°C
Wind Press
QNH
hPa
Press
MSL
hPa
Rain
since 9 am
mm
Dir
 
Spd
km/h
Gust
km/h
Spd
kts
Gust
kts
06/11:30pm 26.6 23.5 7.1 29 10.5 SE 13 15 7 8 1015.1 - 0.0
06/11:00pm 26.9 24.1 6.9 28 10.8 SE 11 13 6 7 1015.0 - 0.0
06/10:30pm 28.0 24.8 6.7 26 11.5 SE 13 17 7 9 1014.8 1011.3 0.0
06/10:00pm 27.9 25.5 7.2 27 11.3 SE 9 11 5 6 1014.4 - 0.0
06/09:30pm 28.9 26.3 6.3 24 12.2 SE 9 11 5 6 1014.0 - 0.0
06/09:00pm 30.1 27.0 5.4 21 13.2 SE 11 15 6 8 1013.7 - 0.0
06/08:30pm 31.3 27.2 4.2 18 14.3 SE 15 20 8 11 1013.3 - 0.0
06/08:00pm 32.1 27.4 3.1 16 15.1 SE 17 24 9 13 1013.0 - 0.0
06/07:30pm 33.0 27.7 2.9 15 15.7 SE 20 28 11 15 1012.7 1009.2 0.0
06/07:00pm 33.6 27.8 2.4 14 16.2 SE 22 44 12 24 1012.4 - 0.0
06/06:30pm 33.7 26.8 2.5 14 16.2 ESE 28 39 15 21 1012.1 - 0.0
06/06:00pm 34.4 29.3 3.1 14 16.5 ESE 19 28 10 15 1011.9 - 0.0
06/05:30pm 34.4 29.7 3.1 14 16.5 SSE 17 24 9 13 1011.9 - 0.0
06/05:00pm 34.6 29.0 3.2 14 16.6 SE 22 32 12 17 1012.0 - 0.0
06/04:30pm 34.3 28.8 1.9 13 16.8 SE 20 33 11 18 1012.3 1008.8 0.0
06/04:00pm 34.8 29.6 3.4 14 16.7 SE 20 33 11 18 1012.7 - 0.0
06/03:30pm 34.4 29.5 4.0 15 16.3 E 19 30 10 16 1012.9 - 0.0
06/03:00pm 33.4 28.9 2.3 14 16.1 SE 15 24 8 13 1013.2 - 0.0
06/02:30pm 33.7 28.5 3.5 15 16.0 SE 20 28 11 15 1013.4 - 0.0
06/02:00pm 32.9 27.8 2.9 15 15.7 ESE 19 33 10 18 1013.7 - 0.0
06/01:30pm 33.7 28.7 3.5 15 16.0 SSE 19 32 10 17 1014.2 1010.8 0.0
06/01:00pm 31.1 27.5 3.2 17 14.5 ESE 11 19 6 10 1014.7 - 0.0
06/12:30pm 31.7 28.0 4.5 18 14.5 SE 13 28 7 15 1015.2 - 0.0
06/12:00pm 31.6 27.1 4.4 18 14.4 E 17 39 9 21 1015.5 - 0.0
06/11:30am 30.4 26.1 7.0 23 12.9 E 19 28 10 15 1015.7 - 0.0
06/11:00am 29.4 25.2 7.3 25 12.2 E 19 30 10 16 1016.0 - 0.0
06/10:30am 28.2 23.3 6.9 26 11.6 E 22 30 12 16 1016.1 1012.7 0.0
06/10:00am 27.3 22.5 7.2 28 10.9 E 22 33 12 18 1016.3 - 0.0
06/09:30am 26.7 21.5 7.2 29 10.6 E 24 35 13 19 1016.1 - 0.0
06/09:00am 25.7 20.5 7.3 31 9.9 ESE 24 35 13 19 1015.9 - 0.0
06/08:30am 23.7 18.3 7.8 36 8.6 ESE 26 33 14 18 1015.7 - 0.0
06/08:00am 22.4 17.7 7.8 39 7.8 ESE 22 32 12 17 1015.7 - 0.0
06/07:30am 21.2 16.9 7.8 42 7.1 ESE 20 28 11 15 1015.2 1011.7 0.0
06/07:00am 20.2 16.2 8.2 46 6.4 ESE 19 28 10 15 1014.7 - 0.0
06/06:30am 20.1 16.4 8.1 46 6.4 ESE 17 22 9 12 1014.1 - 0.0
06/06:00am 20.4 16.7 8.1 45 6.5 ESE 17 22 9 12 1013.8 - 0.0
06/05:30am 20.8 16.8 8.1 44 6.8 ESE 19 22 10 12 1013.6 - 0.0
06/05:00am 21.4 17.1 8.0 42 7.1 SE 20 28 11 15 1013.4 - 0.0
06/04:30am 21.6 17.5 7.8 41 7.3 SE 19 24 10 13 1013.1 1009.6 0.0
06/04:00am 21.8 18.0 7.6 40 7.5 SE 17 24 9 13 1013.1 - 0.0
06/03:30am 22.1 18.7 7.5 39 7.7 SE 15 20 8 11 1013.1 - 0.0
06/03:00am 22.8 19.0 7.4 37 8.2 SE 17 20 9 11 1013.2 - 0.0
06/02:30am 23.2 19.7 7.3 36 8.5 SE 15 20 8 11 1013.2 - 0.0
06/02:00am 22.7 20.1 7.7 38 8.0 SE 11 15 6 8 1013.5 - 0.0
06/01:30am 23.2 20.5 7.3 36 8.5 SE 11 13 6 7 1013.8 1010.4 0.0
06/01:00am 24.1 20.6 7.3 34 9.0 SE 15 20 8 11 1014.1 - 0.0
06/12:30am 24.4 21.4 7.5 34 9.1 SE 13 20 7 11 1014.1 - 0.0
06/12:00am 25.0 21.5 7.2 32 9.5 SE 15 19 8 10 1014.3 - 0.0
 
Date/Time
CST
Temp
°C
App
Temp
°C
Dew
Point
Rel
Hum
%
Delta-T
°C
Wind Press
QNH
hPa
Press
MSL
hPa
Rain
since 9 am
mm
Dir
 
Spd
km/h
Gust
km/h
Spd
kts
Gust
kts
05/11:30pm 25.4 22.0 7.5 32 9.7 SE 15 20 8 11 1014.4 - 0.0
05/11:00pm 25.8 22.7 7.4 31 9.9 SE 13 17 7 9 1014.4 - 0.0
05/10:30pm 26.4 22.8 6.9 29 10.5 SSE 15 20 8 11 1014.2 1010.8 0.0
05/10:00pm 27.1 23.4 6.5 27 11.0 SSE 15 20 8 11 1014.1 - 0.0
05/09:30pm 27.7 23.7 6.5 26 11.4 SSE 17 20 9 11 1013.9 - 0.0
05/09:00pm 28.3 24.5 5.8 24 12.0 SE 15 20 8 11 1013.6 - 0.0
05/08:30pm 28.9 24.4 4.4 21 12.8 SE 17 20 9 11 1013.3 - 0.0
05/08:00pm 29.6 25.0 3.5 19 13.5 SE 17 20 9 11 1013.0 - 0.0
05/07:30pm 30.4 25.4 3.4 18 14.0 SE 19 24 10 13 1012.7 1009.2 0.0
05/07:00pm 30.9 25.7 3.8 18 14.2 SSE 20 28 11 15 1012.5 - 0.0
05/06:30pm 31.1 25.8 3.2 17 14.5 SE 20 26 11 14 1012.3 - 0.0
05/06:00pm 31.5 26.5 3.5 17 14.6 S 19 28 10 15 1012.1 - 0.0
05/05:30pm 31.5 27.8 4.3 18 14.4 SE 13 26 7 14 1011.9 - 0.0

Other Formats:

Comma delimited format used in spreadsheet applications
http://www.bom.gov.au/fwo/IDD60801/IDD60801.94457.axf

JavaScript Object Notation format (JSON) in row-major order
http://www.bom.gov.au/fwo/IDD60801/IDD60801.94457.json